createdAt,value
2023-05-14T00:00:51.178Z,81.45
2023-05-14T00:01:51.233Z,81.26
2023-05-14T00:02:51.342Z,81.26
2023-05-14T00:03:51.331Z,81.45
2023-05-14T00:04:51.282Z,82.03
2023-05-14T00:05:51.299Z,82.12
2023-05-14T00:06:51.325Z,82.41
2023-05-14T00:07:51.344Z,82.70
2023-05-14T00:08:51.367Z,82.18
2023-05-14T00:09:51.401Z,83.42
2023-05-14T00:10:51.417Z,83.42
2023-05-14T00:11:51.439Z,83.51
2023-05-14T00:12:51.462Z,83.56
2023-05-14T00:13:51.502Z,83.13
2023-05-14T00:14:51.518Z,82.84
2023-05-14T00:15:51.588Z,83.70
2023-05-14T00:16:51.564Z,83.80
2023-05-14T00:17:51.638Z,83.90
2023-05-14T00:18:51.635Z,83.80
2023-05-14T00:19:51.636Z,83.80
2023-05-14T00:20:51.661Z,84.66
2023-05-14T00:21:51.680Z,84.56
2023-05-14T00:22:51.712Z,84.19
2023-05-14T00:23:51.735Z,84.38
2023-05-14T00:24:51.759Z,84.66
2023-05-14T00:25:51.792Z,85.24
2023-05-14T00:26:51.807Z,85.05
2023-05-14T00:27:51.830Z,85.42
2023-05-14T00:28:51.857Z,85.05
2023-05-14T00:29:51.877Z,85.52
2023-05-14T00:30:51.904Z,85.81
2023-05-14T00:31:51.955Z,85.81
2023-05-14T00:32:52.044Z,85.62
2023-05-14T00:33:51.976Z,85.71
2023-05-14T00:34:51.995Z,85.62
2023-05-14T00:35:52.018Z,85.58
2023-05-14T00:36:52.056Z,85.42
2023-05-14T00:37:52.079Z,85.71
2023-05-14T00:38:52.099Z,85.86
2023-05-14T00:39:52.118Z,85.33
2023-05-14T00:40:52.180Z,86.10
2023-05-14T00:41:52.172Z,85.52
2023-05-14T00:42:52.189Z,86.10
2023-05-14T00:43:52.224Z,85.67
2023-05-14T00:44:52.236Z,86.05
2023-05-14T00:45:52.266Z,86.34
2023-05-14T00:46:52.336Z,86.96
2023-05-14T00:47:52.361Z,86.53
2023-05-14T00:48:52.334Z,86.53
2023-05-14T00:49:52.358Z,86.63
2023-05-14T00:50:52.388Z,87.10
2023-05-14T00:51:52.406Z,87.48
2023-05-14T00:52:52.432Z,87.29
2023-05-14T00:53:52.451Z,87.29
2023-05-14T00:54:52.497Z,87.29
2023-05-14T00:55:52.506Z,87.01
2023-05-14T00:56:52.524Z,87.20
2023-05-14T00:57:52.550Z,87.29
2023-05-14T00:58:52.574Z,87.48
2023-05-14T00:59:52.606Z,87.10
2023-05-14T01:00:52.710Z,87.29
2023-05-14T01:01:52.641Z,87.10
2023-05-14T01:02:52.721Z,87.10
2023-05-14T01:03:52.763Z,87.39
2023-05-14T01:04:52.712Z,87.10
2023-05-14T01:05:52.736Z,87.10
2023-05-14T01:06:52.762Z,87.20
2023-05-14T01:07:52.785Z,88.44
2023-05-14T01:08:52.815Z,87.96
2023-05-14T01:09:52.831Z,88.06
2023-05-14T01:10:52.862Z,87.87
2023-05-14T01:11:52.879Z,88.06
2023-05-14T01:12:52.906Z,87.96
2023-05-14T01:13:52.931Z,88.06
2023-05-14T01:14:52.947Z,87.77
2023-05-14T01:15:52.976Z,88.25
2023-05-14T01:16:53.035Z,88.20
2023-05-14T01:17:53.059Z,88.54
2023-05-14T01:18:53.099Z,88.68
2023-05-14T01:19:53.080Z,88.20
2023-05-14T01:20:53.093Z,88.59
2023-05-14T01:21:53.121Z,88.30
2023-05-14T01:22:53.149Z,88.30
2023-05-14T01:23:53.166Z,88.59
2023-05-14T01:24:53.186Z,88.68
2023-05-14T01:25:53.208Z,88.20
2023-05-14T01:26:53.236Z,88.40
2023-05-14T01:27:53.286Z,88.30
2023-05-14T01:28:53.305Z,89.16
2023-05-14T01:29:53.305Z,89.06
2023-05-14T01:30:53.325Z,89.35
2023-05-14T01:31:53.375Z,89.54
2023-05-14T01:32:53.436Z,89.73
2023-05-14T01:33:53.399Z,89.16
2023-05-14T01:34:53.432Z,89.83
2023-05-14T01:35:53.444Z,89.73
2023-05-14T01:36:53.473Z,89.92
2023-05-14T01:37:53.494Z,90.45
2023-05-14T01:38:53.514Z,90.07
2023-05-14T01:39:53.553Z,90.55
2023-05-14T01:40:53.565Z,90.64
2023-05-14T01:41:53.583Z,90.36
2023-05-14T01:42:53.638Z,90.64
2023-05-14T01:43:53.636Z,90.93
2023-05-14T01:44:53.654Z,90.83
2023-05-14T01:45:53.701Z,90.64
2023-05-14T01:46:53.700Z,91.41
2023-05-14T01:47:53.747Z,91.21
2023-05-14T01:48:53.742Z,91.69
2023-05-14T01:49:53.768Z,91.98
2023-05-14T01:50:53.796Z,91.69
2023-05-14T01:51:53.815Z,91.88
2023-05-14T01:52:53.842Z,92.07
2023-05-14T01:53:53.859Z,91.98
2023-05-14T01:54:53.909Z,92.55
2023-05-14T01:55:53.912Z,92.46
2023-05-14T01:56:53.930Z,92.26
2023-05-14T01:57:53.957Z,92.26
2023-05-14T01:58:53.978Z,92.83
2023-05-14T01:59:54.003Z,93.02
2023-05-14T02:00:54.025Z,92.55
2023-05-14T02:01:54.182Z,92.83
2023-05-14T02:02:54.239Z,92.93
2023-05-14T02:03:54.139Z,92.74
2023-05-14T02:04:54.121Z,92.74
2023-05-14T02:05:54.138Z,93.22
2023-05-14T02:06:54.158Z,93.12
2023-05-14T02:07:54.187Z,93.02
2023-05-14T02:08:54.220Z,93.22
2023-05-14T02:09:54.230Z,93.51
2023-05-14T02:10:54.256Z,93.22
2023-05-14T02:11:54.280Z,93.22
2023-05-14T02:12:54.300Z,93.88
2023-05-14T02:13:54.335Z,93.55
2023-05-14T02:14:54.351Z,94.07
2023-05-14T02:15:54.413Z,93.98
2023-05-14T02:16:54.408Z,93.74
2023-05-14T02:17:54.454Z,94.07
2023-05-14T02:18:54.487Z,94.89
2023-05-14T02:19:54.479Z,94.79
2023-05-14T02:20:54.488Z,94.89
2023-05-14T02:21:54.515Z,94.70
2023-05-14T02:22:54.535Z,95.08
2023-05-14T02:23:54.558Z,94.89
2023-05-14T02:24:54.581Z,94.60
2023-05-14T02:25:54.599Z,94.60
2023-05-14T02:26:54.629Z,95.46
2023-05-14T02:27:54.651Z,95.27
2023-05-14T02:28:54.680Z,95.46
2023-05-14T02:29:54.698Z,95.46
2023-05-14T02:30:54.718Z,95.17
2023-05-14T02:31:54.873Z,95.94
2023-05-14T02:32:54.924Z,95.37
2023-05-14T02:33:54.790Z,95.94
2023-05-14T02:34:54.814Z,96.03
2023-05-14T02:35:54.840Z,96.41
2023-05-14T02:36:54.868Z,96.61
2023-05-14T02:37:54.881Z,96.70
2023-05-14T02:38:54.904Z,96.32
2023-05-14T02:39:54.937Z,96.13
2023-05-14T02:40:54.952Z,96.80
2023-05-14T02:41:54.973Z,96.89
2023-05-14T02:42:54.997Z,97.17
2023-05-14T02:43:55.033Z,97.27
2023-05-14T02:44:55.061Z,96.94
2023-05-14T02:45:55.068Z,97.56
2023-05-14T02:46:55.133Z,97.56
2023-05-14T02:47:55.118Z,97.56
2023-05-14T02:48:55.136Z,97.56
2023-05-14T02:49:55.159Z,97.56
2023-05-14T02:50:55.184Z,97.37
2023-05-14T02:51:55.218Z,97.66
2023-05-14T02:52:55.230Z,97.17
2023-05-14T02:53:55.258Z,97.17
2023-05-14T02:54:55.279Z,97.37
2023-05-14T02:55:55.299Z,97.08
2023-05-14T02:56:55.317Z,96.98
2023-05-14T02:57:55.342Z,97.17
2023-05-14T02:58:55.372Z,96.98
2023-05-14T02:59:55.384Z,97.75
2023-05-14T03:00:55.434Z,97.37
2023-05-14T03:01:55.493Z,97.46
2023-05-14T03:02:55.507Z,97.66
2023-05-14T03:03:55.479Z,97.85
2023-05-14T03:04:55.498Z,97.56
2023-05-14T03:05:55.522Z,98.32
2023-05-14T03:06:55.555Z,97.94
2023-05-14T03:07:55.577Z,98.13
2023-05-14T03:08:55.593Z,97.85
2023-05-14T03:09:55.627Z,97.94
2023-05-14T03:10:55.637Z,97.66
2023-05-14T03:11:55.664Z,97.85
2023-05-14T03:12:55.687Z,98.13
2023-05-14T03:13:55.710Z,98.13
2023-05-14T03:14:55.730Z,98.13
2023-05-14T03:15:55.759Z,98.22
2023-05-14T03:16:55.811Z,98.51
2023-05-14T03:17:55.829Z,98.13
2023-05-14T03:18:55.950Z,98.22
2023-05-14T03:19:55.842Z,98.80
2023-05-14T03:20:55.865Z,98.51
2023-05-14T03:21:55.890Z,98.51
2023-05-14T03:22:55.912Z,98.61
2023-05-14T03:23:55.931Z,98.42
2023-05-14T03:24:55.954Z,98.61
2023-05-14T03:25:55.980Z,98.13
2023-05-14T03:26:55.996Z,98.51
2023-05-14T03:27:56.033Z,98.61
2023-05-14T03:28:56.053Z,98.61
2023-05-14T03:29:56.071Z,98.80
2023-05-14T03:30:56.107Z,98.70
2023-05-14T03:31:56.124Z,98.51
2023-05-14T03:32:56.161Z,98.90
2023-05-14T03:33:56.162Z,98.80
2023-05-14T03:34:56.185Z,98.80
2023-05-14T03:35:56.220Z,98.42
2023-05-14T03:36:56.234Z,98.42
2023-05-14T03:37:56.254Z,98.61
2023-05-14T03:38:56.279Z,98.70
2023-05-14T03:39:56.296Z,98.70
2023-05-14T03:40:56.325Z,98.70
2023-05-14T03:41:56.350Z,98.32
2023-05-14T03:42:56.368Z,98.70
2023-05-14T03:43:56.390Z,98.51
2023-05-14T03:44:56.412Z,98.51
2023-05-14T03:45:56.437Z,98.51
2023-05-14T03:46:56.467Z,98.51
2023-05-14T03:47:56.564Z,98.61
2023-05-14T03:48:56.529Z,98.70
2023-05-14T03:49:56.533Z,98.90
2023-05-14T03:50:56.554Z,98.61
2023-05-14T03:51:56.580Z,98.70
2023-05-14T03:52:56.594Z,98.70
2023-05-14T03:53:56.620Z,98.61
2023-05-14T03:54:56.644Z,98.51
2023-05-14T03:55:56.673Z,98.61
2023-05-14T03:56:56.689Z,98.90
2023-05-14T03:57:56.721Z,98.70
2023-05-14T03:58:56.737Z,99.04
2023-05-14T03:59:56.774Z,98.47
2023-05-14T04:00:56.795Z,98.37
2023-05-14T04:01:56.803Z,98.66
2023-05-14T04:02:56.949Z,98.23
2023-05-14T04:03:57.000Z,98.03
2023-05-14T04:04:56.888Z,97.71
2023-05-14T04:05:56.891Z,97.42
2023-05-14T04:06:56.921Z,96.37
2023-05-14T04:07:56.940Z,94.60
2023-05-14T04:08:56.965Z,94.51
2023-05-14T04:09:56.991Z,93.93
2023-05-14T04:10:57.014Z,92.69
2023-05-14T04:11:57.032Z,92.74
2023-05-14T04:12:57.067Z,91.97
2023-05-14T04:13:57.093Z,90.73
2023-05-14T04:14:57.108Z,89.77
2023-05-14T04:15:57.163Z,89.39
2023-05-14T04:16:57.725Z,88.76
2023-05-14T04:17:57.216Z,88.29
2023-05-14T04:18:57.212Z,87.56
2023-05-14T04:19:57.229Z,86.70
2023-05-14T04:20:57.248Z,85.84
2023-05-14T04:21:57.273Z,85.55
2023-05-14T04:22:57.318Z,83.59
2023-05-14T04:23:57.321Z,82.82
2023-05-14T04:24:57.349Z,82.63
2023-05-14T04:25:57.389Z,82.09
2023-05-14T04:26:57.408Z,81.90
2023-05-14T04:27:57.418Z,80.89
2023-05-14T04:28:57.443Z,80.22
2023-05-14T04:29:57.465Z,79.36
2023-05-14T04:30:57.492Z,79.21
2023-05-14T04:31:57.544Z,77.48
2023-05-14T04:32:57.585Z,76.90
2023-05-14T04:33:57.580Z,76.71
2023-05-14T04:34:57.598Z,76.37
2023-05-14T04:35:57.628Z,75.89
2023-05-14T04:36:57.643Z,75.60
2023-05-14T04:37:57.664Z,75.21
2023-05-14T04:38:57.690Z,73.97
2023-05-14T04:39:57.711Z,74.39
2023-05-14T04:40:57.757Z,73.33
2023-05-14T04:41:57.772Z,73.14
2023-05-14T04:42:57.798Z,73.33
2023-05-14T04:43:57.835Z,72.37
2023-05-14T04:44:57.847Z,72.53
2023-05-14T04:45:57.968Z,72.14
2023-05-14T04:46:57.895Z,71.86
2023-05-14T04:47:57.984Z,72.43
2023-05-14T04:48:57.953Z,72.78
2023-05-14T04:49:57.969Z,73.35
2023-05-14T04:50:57.998Z,73.55
2023-05-14T04:51:58.024Z,73.83
2023-05-14T04:52:58.057Z,74.22
2023-05-14T04:53:58.246Z,74.02
2023-05-14T04:54:58.105Z,74.02
2023-05-14T04:55:58.132Z,73.99
2023-05-14T04:56:58.155Z,74.37
2023-05-14T04:57:58.184Z,75.23
2023-05-14T04:58:58.208Z,75.62
2023-05-14T04:59:58.232Z,76.10
2023-05-14T05:00:58.335Z,76.10
2023-05-14T05:01:58.284Z,76.77
2023-05-14T05:02:58.436Z,76.77
2023-05-14T05:03:58.415Z,76.96
2023-05-14T05:04:58.363Z,77.06
2023-05-14T05:05:58.396Z,77.53
2023-05-14T05:06:58.422Z,77.15
2023-05-14T05:07:58.441Z,77.53
2023-05-14T05:09:00.629Z,76.96
2023-05-14T05:09:58.499Z,76.86
2023-05-14T05:10:58.520Z,76.77
2023-05-14T05:11:58.553Z,76.96
2023-05-14T05:12:58.575Z,76.77
2023-05-14T05:13:58.601Z,76.57
2023-05-14T05:14:58.634Z,77.06
2023-05-14T05:15:58.670Z,76.57
2023-05-14T05:16:58.691Z,77.15
2023-05-14T05:17:58.762Z,77.15
2023-05-14T05:18:58.758Z,76.57
2023-05-14T05:19:58.760Z,76.92
2023-05-14T05:20:58.785Z,77.34
2023-05-14T05:21:58.812Z,77.21
2023-05-14T05:22:58.838Z,77.40
2023-05-14T05:23:58.863Z,77.78
2023-05-14T05:24:58.896Z,77.50
2023-05-14T05:25:58.924Z,77.88
2023-05-14T05:26:58.949Z,78.07
2023-05-14T05:27:58.978Z,78.45
2023-05-14T05:28:59.000Z,78.84
2023-05-14T05:29:59.025Z,79.32
2023-05-14T05:30:59.069Z,79.51
2023-05-14T05:31:59.081Z,78.93
2023-05-14T05:32:59.162Z,78.84
2023-05-14T05:33:59.130Z,78.55
2023-05-14T05:34:59.170Z,79.13
2023-05-14T05:35:59.183Z,78.93
2023-05-14T05:36:59.201Z,79.32
2023-05-14T05:38:01.357Z,78.84
2023-05-14T05:38:59.266Z,78.74
2023-05-14T05:39:59.284Z,78.74
2023-05-14T05:40:59.321Z,79.37
2023-05-14T05:41:59.333Z,79.22
2023-05-14T05:42:59.363Z,79.03
2023-05-14T05:43:59.397Z,79.22
2023-05-14T05:44:59.412Z,79.32
2023-05-14T05:45:59.443Z,79.45
2023-05-14T05:46:59.569Z,78.20
2023-05-14T05:47:59.532Z,77.73
2023-05-14T05:48:59.521Z,77.67
2023-05-14T05:49:59.548Z,77.38
2023-05-14T05:50:59.574Z,76.96
2023-05-14T05:51:59.606Z,76.57
2023-05-14T05:52:59.628Z,76.86
2023-05-14T05:53:59.651Z,76.86
2023-05-14T05:54:59.679Z,77.34
2023-05-14T05:55:59.722Z,77.53
2023-05-14T05:56:59.742Z,77.50
2023-05-14T05:57:59.759Z,77.97
2023-05-14T05:58:59.800Z,77.69
2023-05-14T05:59:59.823Z,78.45
2023-05-14T06:00:59.838Z,78.07
2023-05-14T06:01:59.900Z,79.22
2023-05-14T06:02:59.934Z,78.93
2023-05-14T06:03:59.916Z,79.22
2023-05-14T06:05:00.027Z,79.51
2023-05-14T06:05:59.973Z,79.32
2023-05-14T06:07:00.025Z,79.32
2023-05-14T06:08:00.040Z,79.32
2023-05-14T06:09:00.053Z,79.89
2023-05-14T06:10:00.077Z,80.08
2023-05-14T06:11:00.129Z,80.47
2023-05-14T06:12:00.152Z,80.70
2023-05-14T06:13:00.205Z,80.70
2023-05-14T06:14:00.218Z,80.89
2023-05-14T06:15:00.217Z,80.79
2023-05-14T06:16:00.340Z,80.70
2023-05-14T06:17:00.484Z,80.45
2023-05-14T06:18:00.327Z,80.74
2023-05-14T06:19:00.411Z,80.74
2023-05-14T06:20:00.364Z,80.40
2023-05-14T06:21:00.492Z,80.11
2023-05-14T06:22:00.399Z,79.53
2023-05-14T06:23:00.448Z,78.47
2023-05-14T06:24:00.452Z,78.00
2023-05-14T06:25:00.485Z,77.80
2023-05-14T06:26:00.522Z,77.94
2023-05-14T06:27:00.560Z,77.84
2023-05-14T06:28:00.558Z,77.94
2023-05-14T06:29:00.582Z,77.26
2023-05-14T06:30:00.609Z,76.69
2023-05-14T06:31:00.638Z,77.08
2023-05-14T06:32:00.698Z,76.31
2023-05-14T06:33:00.708Z,76.31
2023-05-14T06:34:00.722Z,76.31
2023-05-14T06:35:00.762Z,76.31
2023-05-14T06:36:00.798Z,76.69
2023-05-14T06:37:00.812Z,76.94
2023-05-14T06:38:00.846Z,77.61
2023-05-14T06:39:00.872Z,77.13
2023-05-14T06:40:00.918Z,77.46
2023-05-14T06:41:00.921Z,77.13
2023-05-14T06:42:00.949Z,77.75
2023-05-14T06:43:00.972Z,77.33
2023-05-14T06:44:00.995Z,77.65
2023-05-14T06:45:01.026Z,77.26
2023-05-14T06:46:01.057Z,77.36
2023-05-14T06:47:01.108Z,77.17
2023-05-14T06:48:01.177Z,76.73
2023-05-14T06:49:01.170Z,76.25
2023-05-14T06:50:01.173Z,76.06
2023-05-14T06:51:01.207Z,75.67
2023-05-14T06:52:01.225Z,75.81
2023-05-14T06:53:01.260Z,75.90
2023-05-14T06:54:01.295Z,75.62
2023-05-14T06:55:01.327Z,74.69
2023-05-14T06:56:01.341Z,73.73
2023-05-14T06:57:01.362Z,73.06
2023-05-14T06:58:01.391Z,73.38
2023-05-14T06:59:01.440Z,72.71
2023-05-14T07:00:03.257Z,72.71
2023-05-14T07:01:01.582Z,72.84
2023-05-14T07:02:01.612Z,73.03
2023-05-14T07:03:01.613Z,72.30
2023-05-14T07:04:01.714Z,72.11
2023-05-14T07:05:01.605Z,71.56
2023-05-14T07:06:01.632Z,70.79
2023-05-14T07:07:01.663Z,69.73
2023-05-14T07:08:01.701Z,69.45
2023-05-14T07:09:01.732Z,69.35
2023-05-14T07:10:01.766Z,69.83
2023-05-14T07:11:01.815Z,69.35
2023-05-14T07:12:01.819Z,69.48
2023-05-14T07:13:01.852Z,69.57
2023-05-14T07:14:01.898Z,69.48
2023-05-14T07:15:01.913Z,69.48
2023-05-14T07:16:01.944Z,68.61
2023-05-14T07:17:02.027Z,68.90
2023-05-14T07:18:02.069Z,68.00
2023-05-14T07:19:02.090Z,67.61
2023-05-14T07:20:02.091Z,68.84
2023-05-14T07:21:02.111Z,69.51
2023-05-14T07:22:02.129Z,70.05
2023-05-14T07:23:02.164Z,70.43
2023-05-14T07:24:02.219Z,71.30
2023-05-14T07:25:02.218Z,71.49
2023-05-14T07:26:02.251Z,71.59
2023-05-14T07:27:02.279Z,72.26
2023-05-14T07:28:02.309Z,71.88
2023-05-14T07:29:02.342Z,71.59
2023-05-14T07:30:02.367Z,70.62
2023-05-14T07:31:02.419Z,70.62
2023-05-14T07:32:02.423Z,70.34
2023-05-14T07:33:02.495Z,70.72
2023-05-14T07:34:02.509Z,70.34
2023-05-14T07:35:02.511Z,70.30
2023-05-14T07:36:02.556Z,70.72
2023-05-14T07:37:02.585Z,71.30
2023-05-14T07:38:02.596Z,71.20
2023-05-14T07:39:02.630Z,71.49
2023-05-14T07:40:02.654Z,72.36
2023-05-14T07:41:02.690Z,71.20
2023-05-14T07:42:02.712Z,70.62
2023-05-14T07:43:02.744Z,70.34
2023-05-14T07:44:02.769Z,71.59
2023-05-14T07:45:02.813Z,70.82
2023-05-14T07:46:02.829Z,71.01
2023-05-14T07:47:02.888Z,72.26
2023-05-14T07:48:02.981Z,71.20
2023-05-14T07:49:02.921Z,70.24
2023-05-14T07:50:02.943Z,70.24
2023-05-14T07:51:02.976Z,70.05
2023-05-14T07:52:03.002Z,69.76
2023-05-14T07:53:03.049Z,70.92
2023-05-14T07:54:03.056Z,70.53
2023-05-14T07:55:03.086Z,71.30
2023-05-14T07:56:03.109Z,72.36
2023-05-14T07:57:03.141Z,72.55
2023-05-14T07:58:03.182Z,72.45
2023-05-14T07:59:03.202Z,72.49
2023-05-14T08:00:03.242Z,71.91
2023-05-14T08:01:03.266Z,71.34
2023-05-14T08:02:03.314Z,71.85
2023-05-14T08:03:03.520Z,70.09
2023-05-14T08:04:03.563Z,69.99
2023-05-14T08:05:03.371Z,69.51
2023-05-14T08:06:03.403Z,68.77
2023-05-14T08:07:03.430Z,68.68
2023-05-14T08:08:03.469Z,68.96
2023-05-14T08:09:03.485Z,68.68
2023-05-14T08:10:03.524Z,67.90
2023-05-14T08:11:03.653Z,67.52
2023-05-14T08:12:03.573Z,68.10
2023-05-14T08:13:05.822Z,68.87
2023-05-14T08:14:03.631Z,68.68
2023-05-14T08:15:03.661Z,67.71
2023-05-14T08:16:03.691Z,67.29
2023-05-14T08:17:03.985Z,68.06
2023-05-14T08:18:03.856Z,68.74
2023-05-14T08:19:03.808Z,67.68
2023-05-14T08:20:03.802Z,68.54
2023-05-14T08:21:03.945Z,69.12
2023-05-14T08:22:03.865Z,69.31
2023-05-14T08:23:03.890Z,70.18
2023-05-14T08:24:03.926Z,69.22
2023-05-14T08:25:03.951Z,69.12
2023-05-14T08:26:04.006Z,69.41
2023-05-14T08:27:04.004Z,69.31
2023-05-14T08:28:04.038Z,69.41
2023-05-14T08:29:04.060Z,69.99
2023-05-14T08:30:04.099Z,69.73
2023-05-14T08:31:04.175Z,69.64
2023-05-14T08:32:15.505Z,69.54
2023-05-14T08:33:04.222Z,68.38
2023-05-14T08:34:04.205Z,67.74
2023-05-14T08:35:04.231Z,67.74
2023-05-14T08:36:04.265Z,68.13
2023-05-14T08:37:04.290Z,67.74
2023-05-14T08:38:04.327Z,67.55
2023-05-14T08:39:04.354Z,66.20
2023-05-14T08:40:04.380Z,64.86
2023-05-14T08:41:04.450Z,65.14
2023-05-14T08:42:04.439Z,65.05
2023-05-14T08:43:04.464Z,65.53
2023-05-14T08:44:04.495Z,65.81
2023-05-14T08:45:04.541Z,66.07
2023-05-14T08:46:04.555Z,65.98
2023-05-14T08:47:04.577Z,66.85
2023-05-14T08:48:04.675Z,67.36
2023-05-14T08:49:04.676Z,67.46
2023-05-14T08:50:04.748Z,66.97
2023-05-14T08:51:04.694Z,66.49
2023-05-14T08:52:04.720Z,65.91
2023-05-14T08:53:04.764Z,65.53
2023-05-14T08:54:04.781Z,67.36
2023-05-14T08:55:04.810Z,67.36
2023-05-14T08:56:04.836Z,67.07
2023-05-14T08:57:04.869Z,66.49
2023-05-14T08:58:04.895Z,65.53
2023-05-14T08:59:04.937Z,65.91
2023-05-14T09:00:05.025Z,65.72
2023-05-14T09:01:04.981Z,65.91
2023-05-14T09:02:05.099Z,65.63
2023-05-14T09:03:05.101Z,66.88
2023-05-14T09:04:05.107Z,66.82
2023-05-14T09:05:05.154Z,66.82
2023-05-14T09:06:05.125Z,67.30
2023-05-14T09:07:05.158Z,66.66
2023-05-14T09:08:05.182Z,67.04
2023-05-14T09:09:05.218Z,66.17
2023-05-14T09:10:05.248Z,67.04
2023-05-14T09:11:05.274Z,66.56
2023-05-14T09:12:05.302Z,63.47
2023-05-14T09:13:05.335Z,62.02
2023-05-14T09:14:12.514Z,62.09
2023-05-14T09:17:13.888Z,63.54
2023-05-14T09:18:13.500Z,64.50
2023-05-14T09:20:06.597Z,65.40
2023-05-14T09:21:06.566Z,65.40
2023-05-14T09:23:11.096Z,63.57
2023-05-14T09:24:10.625Z,64.05
2023-05-14T09:26:14.685Z,65.98
2023-05-14T09:27:14.669Z,66.97
2023-05-14T09:29:19.238Z,63.79
2023-05-14T09:30:18.719Z,63.15
2023-05-14T09:32:22.852Z,62.18
2023-05-14T09:33:22.767Z,62.47
2023-05-14T09:35:27.344Z,60.38
2023-05-14T09:36:26.827Z,60.54
2023-05-14T09:38:19.810Z,60.96
2023-05-14T09:39:19.799Z,62.12
2023-05-14T09:41:24.330Z,61.63
2023-05-14T09:42:23.870Z,61.15
2023-05-14T09:44:27.908Z,59.73
2023-05-14T09:45:27.911Z,59.51
2023-05-14T09:47:32.645Z,59.51
2023-05-14T09:48:32.000Z,59.60
2023-05-14T09:50:36.024Z,60.57
2023-05-14T09:51:36.012Z,61.05
2023-05-14T09:53:40.567Z,61.92
2023-05-14T09:54:40.063Z,63.50
2023-05-14T09:56:44.118Z,61.37
2023-05-14T09:57:44.116Z,60.21
2023-05-14T09:59:48.658Z,58.37
2023-05-14T10:00:48.223Z,58.15
2023-05-14T10:02:52.280Z,58.03
2023-05-14T10:03:52.328Z,58.61
2023-05-14T10:05:56.808Z,58.42
2023-05-14T10:06:56.312Z,59.45
2023-05-14T10:09:00.369Z,58.77
2023-05-14T10:10:00.377Z,59.35
2023-05-14T10:12:04.891Z,59.96
2023-05-14T10:13:04.416Z,59.64
2023-05-14T10:15:08.489Z,60.03
2023-05-14T10:16:08.471Z,59.06
2023-05-14T10:18:01.594Z,60.31
2023-05-14T10:19:01.514Z,60.22
2023-05-14T10:21:05.494Z,59.74
2023-05-14T10:22:05.491Z,59.83
2023-05-14T10:24:10.032Z,59.55
2023-05-14T10:25:09.560Z,60.51
2023-05-14T10:27:13.640Z,60.00
2023-05-14T10:28:13.614Z,60.19
2023-05-14T10:30:18.158Z,60.48
2023-05-14T10:31:17.683Z,60.48
2023-05-14T10:33:21.729Z,59.74
2023-05-14T10:34:21.719Z,59.55
2023-05-14T10:36:26.308Z,59.25
2023-05-14T10:37:25.787Z,59.74
2023-05-14T10:39:29.831Z,59.25
2023-05-14T10:40:29.826Z,59.83
2023-05-14T10:42:34.351Z,60.31
2023-05-14T10:43:33.894Z,60.51
2023-05-14T10:45:37.962Z,59.74
2023-05-14T10:46:38.000Z,59.83
2023-05-14T10:48:31.008Z,59.55
2023-05-14T10:49:42.714Z,60.44
2023-05-14T10:51:35.099Z,60.16
2023-05-14T10:52:34.998Z,60.18
2023-05-14T10:54:39.534Z,58.35
2023-05-14T10:55:39.047Z,56.90
2023-05-14T10:57:32.038Z,59.38
2023-05-14T10:58:32.025Z,58.90
2023-05-14T11:00:36.557Z,59.67
2023-05-14T11:01:36.128Z,59.67
2023-05-14T11:03:40.161Z,60.61
2023-05-14T11:04:40.127Z,60.51
2023-05-14T11:06:44.670Z,60.35
2023-05-14T11:07:44.200Z,60.35
2023-05-14T11:09:48.765Z,61.02
2023-05-14T11:10:48.730Z,59.96
2023-05-14T11:11:48.774Z,60.83
2023-05-14T11:12:48.788Z,59.86
2023-05-14T11:13:48.825Z,59.93
2023-05-14T11:14:48.854Z,59.64
2023-05-14T11:15:48.882Z,59.16
2023-05-14T11:16:48.937Z,59.74
2023-05-14T11:17:48.987Z,60.31
2023-05-14T11:18:49.025Z,60.31
2023-05-14T11:19:50.992Z,59.93
2023-05-14T11:20:49.034Z,59.93
2023-05-14T11:21:49.131Z,59.64
2023-05-14T11:22:49.099Z,60.03
2023-05-14T11:23:49.182Z,60.13
2023-05-14T11:24:49.152Z,59.58
2023-05-14T11:25:49.194Z,59.48
2023-05-14T11:26:49.216Z,59.77
2023-05-14T11:27:49.241Z,59.48
2023-05-14T11:28:49.270Z,59.51
2023-05-14T11:29:49.303Z,59.99
2023-05-14T11:30:49.334Z,59.99
2023-05-14T11:31:49.433Z,60.31
2023-05-14T11:32:49.504Z,60.34
2023-05-14T11:33:49.428Z,58.02
2023-05-14T11:34:49.483Z,56.11
2023-05-14T11:35:49.494Z,56.11
2023-05-14T11:36:49.532Z,56.11
2023-05-14T11:37:49.555Z,56.60
2023-05-14T11:38:49.581Z,56.40
2023-05-14T11:39:49.610Z,55.17
2023-05-14T11:40:49.648Z,54.98
2023-05-14T11:41:49.672Z,54.39
2023-05-14T11:42:49.707Z,53.33
2023-05-14T11:43:49.742Z,53.33
2023-05-14T11:44:49.771Z,52.73
2023-05-14T11:45:49.850Z,52.05
2023-05-14T11:46:49.831Z,53.69
2023-05-14T11:47:49.896Z,54.17
2023-05-14T11:48:49.905Z,54.27
2023-05-14T11:49:49.940Z,55.05
2023-05-14T11:50:49.958Z,55.05
2023-05-14T11:51:49.995Z,55.24
2023-05-14T11:52:50.045Z,54.57
2023-05-14T11:53:50.057Z,53.02
2023-05-14T11:54:50.087Z,52.73
2023-05-14T11:55:50.120Z,52.34
2023-05-14T11:56:50.152Z,53.19
2023-05-14T11:57:50.182Z,53.67
2023-05-14T11:58:50.242Z,53.38
2023-05-14T11:59:50.249Z,53.77
2023-05-14T12:00:50.274Z,54.15
2023-05-14T12:01:50.798Z,53.57
2023-05-14T12:02:50.505Z,53.67
2023-05-14T12:03:50.446Z,53.28
2023-05-14T12:04:50.492Z,53.57
2023-05-14T12:05:50.429Z,53.38
2023-05-14T12:06:50.473Z,53.28
2023-05-14T12:07:50.514Z,53.74
2023-05-14T12:08:50.538Z,53.77
2023-05-14T12:09:50.579Z,54.63
2023-05-14T12:10:50.593Z,54.57
2023-05-14T12:11:50.622Z,53.59
2023-05-14T12:12:50.661Z,53.57
2023-05-14T12:13:50.693Z,53.99
2023-05-14T12:14:50.741Z,55.24
2023-05-14T12:15:50.769Z,55.82
2023-05-14T12:16:50.782Z,56.60
2023-05-14T12:17:50.918Z,56.82
2023-05-14T12:18:50.893Z,55.76
2023-05-14T12:19:50.893Z,55.27
2023-05-14T12:20:50.913Z,55.10
2023-05-14T12:21:50.959Z,56.26
2023-05-14T12:22:50.977Z,56.39
2023-05-14T12:23:51.010Z,55.04
2023-05-14T12:24:51.046Z,53.80
2023-05-14T12:25:51.075Z,53.12
2023-05-14T12:26:51.112Z,51.37
2023-05-14T12:27:51.141Z,51.09
2023-05-14T12:28:51.190Z,49.99
2023-05-14T12:29:51.207Z,51.25
2023-05-14T12:30:51.239Z,52.06
2023-05-14T12:31:51.371Z,50.96
2023-05-14T12:32:51.737Z,49.99
2023-05-14T12:33:51.349Z,50.09
2023-05-14T12:34:51.373Z,51.06
2023-05-14T12:35:51.410Z,50.96
2023-05-14T12:36:51.442Z,51.42
2023-05-14T12:37:51.480Z,51.42
2023-05-14T12:38:51.508Z,50.35
2023-05-14T12:39:51.544Z,51.42
2023-05-14T12:40:51.572Z,50.92
2023-05-14T12:41:51.609Z,52.36
2023-05-14T12:42:51.649Z,53.21
2023-05-14T12:43:51.677Z,52.63
2023-05-14T12:44:51.707Z,52.05
2023-05-14T12:45:51.735Z,51.95
2023-05-14T12:46:51.837Z,53.28
2023-05-14T12:47:51.851Z,53.57
2023-05-14T12:48:53.428Z,53.86
2023-05-14T12:49:51.864Z,53.93
2023-05-14T12:50:51.895Z,53.83
2023-05-14T12:51:59.686Z,54.05
2023-05-14T12:52:51.960Z,53.96
2023-05-14T12:53:51.993Z,54.25
2023-05-14T12:54:52.027Z,54.35
2023-05-14T12:55:52.070Z,53.47
2023-05-14T12:56:52.096Z,53.38
2023-05-14T12:57:52.122Z,53.47
2023-05-14T12:58:52.154Z,53.28
2023-05-14T12:59:52.188Z,53.55
2023-05-14T13:00:52.241Z,54.41
2023-05-14T13:01:52.252Z,55.11
2023-05-14T13:02:52.326Z,55.19
2023-05-14T13:03:52.357Z,55.29
2023-05-14T13:04:52.343Z,55.67
2023-05-14T13:05:52.382Z,56.45
2023-05-14T13:06:52.422Z,55.29
2023-05-14T13:07:52.437Z,55.29
2023-05-14T13:08:52.480Z,55.38
2023-05-14T13:09:52.510Z,55.19
2023-05-14T13:10:52.567Z,54.61
2023-05-14T13:11:52.574Z,54.80
2023-05-14T13:12:52.601Z,54.32
2023-05-14T13:13:52.632Z,54.51
2023-05-14T13:14:52.669Z,55.09
2023-05-14T13:15:52.687Z,55.19
2023-05-14T13:16:52.754Z,54.99
2023-05-14T13:17:52.838Z,54.22
2023-05-14T13:18:52.807Z,54.35
2023-05-14T13:19:52.832Z,54.13
2023-05-14T13:20:52.849Z,53.47
2023-05-14T13:21:52.892Z,53.57
2023-05-14T13:22:52.912Z,52.99
2023-05-14T13:23:52.944Z,53.28
2023-05-14T13:24:52.977Z,53.28
2023-05-14T13:25:53.013Z,53.28
2023-05-14T13:26:53.045Z,52.80
2023-05-14T13:27:53.070Z,52.00
2023-05-14T13:28:53.092Z,52.77
2023-05-14T13:29:53.134Z,52.67
2023-05-14T13:30:53.183Z,52.97
2023-05-14T13:31:53.191Z,53.47
2023-05-14T13:32:53.278Z,53.55
2023-05-14T13:33:53.252Z,52.12